sensor_id;sensor_type;location;lat;lon;timestamp;temperature;humidity
2106;DHT22;1059;52.548;13.408;2023-06-10T00:00:21;17.20;99.90
2106;DHT22;1059;52.548;13.408;2023-06-10T00:02:48;17.10;99.90
2106;DHT22;1059;52.548;13.408;2023-06-10T00:05:15;17.10;99.90
2106;DHT22;1059;52.548;13.408;2023-06-10T00:07:46;17.10;99.90
2106;DHT22;1059;52.548;13.408;2023-06-10T00:10:13;17.00;99.90
2106;DHT22;1059;52.548;13.408;2023-06-10T00:12:41;17.00;99.90
2106;DHT22;1059;52.548;13.408;2023-06-10T00:15:09;17.00;99.90
2106;DHT22;1059;52.548;13.408;2023-06-10T00:17:36;17.00;99.90
2106;DHT22;1059;52.548;13.408;2023-06-10T00:20:06;16.90;99.90
2106;DHT22;1059;52.548;13.408;2023-06-10T00:22:34;16.90;99.90
2106;DHT22;1059;52.548;13.408;2023-06-10T00:25:03;16.90;99.90
2106;DHT22;1059;52.548;13.408;2023-06-10T00:27:30;16.90;99.90
2106;DHT22;1059;52.548;13.408;2023-06-10T00:30:01;16.90;99.90
2106;DHT22;1059;52.548;13.408;2023-06-10T00:32:29;16.80;99.90
2106;DHT22;1059;52.548;13.408;2023-06-10T00:34:56;16.80;99.90
2106;DHT22;1059;52.548;13.408;2023-06-10T00:37:23;16.80;99.90
2106;DHT22;1059;52.548;13.408;2023-06-10T00:39:50;16.80;99.90
2106;DHT22;1059;52.548;13.408;2023-06-10T00:42:18;16.80;99.90
2106;DHT22;1059;52.548;13.408;2023-06-10T00:44:45;16.70;99.90
2106;DHT22;1059;52.548;13.408;2023-06-10T00:47:12;16.70;99.90
2106;DHT22;1059;52.548;13.408;2023-06-10T00:49:39;16.70;99.90
2106;DHT22;1059;52.548;13.408;2023-06-10T00:52:07;16.70;99.90
2106;DHT22;1059;52.548;13.408;2023-06-10T00:54:36;16.70;99.90
2106;DHT22;1059;52.548;13.408;2023-06-10T00:57:04;16.70;99.90
2106;DHT22;1059;52.548;13.408;2023-06-10T00:59:33;16.60;99.90
2106;DHT22;1059;52.548;13.408;2023-06-10T01:02:01;16.60;99.90
2106;DHT22;1059;52.548;13.408;2023-06-10T01:04:29;16.60;99.90
2106;DHT22;1059;52.548;13.408;2023-06-10T01:07:03;16.50;99.90
2106;DHT22;1059;52.548;13.408;2023-06-10T01:09:38;16.50;99.90
2106;DHT22;1059;52.548;13.408;2023-06-10T01:12:11;16.50;99.90
2106;DHT22;1059;52.548;13.408;2023-06-10T01:14:42;16.50;99.90
2106;DHT22;1059;52.548;13.408;2023-06-10T01:17:10;16.40;99.90
2106;DHT22;1059;52.548;13.408;2023-06-10T01:19:38;16.40;99.90
2106;DHT22;1059;52.548;13.408;2023-06-10T01:22:07;16.40;99.90
2106;DHT22;1059;52.548;13.408;2023-06-10T01:24:36;16.30;99.90
2106;DHT22;1059;52.548;13.408;2023-06-10T01:27:10;16.30;99.90
2106;DHT22;1059;52.548;13.408;2023-06-10T01:29:42;16.30;99.90
2106;DHT22;1059;52.548;13.408;2023-06-10T01:32:15;16.30;99.90
2106;DHT22;1059;52.548;13.408;2023-06-10T01:34:44;16.30;99.90
2106;DHT22;1059;52.548;13.408;2023-06-10T01:37:15;16.20;99.90
2106;DHT22;1059;52.548;13.408;2023-06-10T01:39:43;16.20;99.90
2106;DHT22;1059;52.548;13.408;2023-06-10T01:42:10;16.20;99.90
2106;DHT22;1059;52.548;13.408;2023-06-10T01:44:39;16.20;99.90
2106;DHT22;1059;52.548;13.408;2023-06-10T01:47:07;16.20;99.90
2106;DHT22;1059;52.548;13.408;2023-06-10T01:49:34;16.20;99.90
2106;DHT22;1059;52.548;13.408;2023-06-10T01:52:01;16.20;99.90
2106;DHT22;1059;52.548;13.408;2023-06-10T01:54:29;16.10;99.90
2106;DHT22;1059;52.548;13.408;2023-06-10T01:56:56;16.10;99.90
2106;DHT22;1059;52.548;13.408;2023-06-10T01:59:23;16.10;99.90
2106;DHT22;1059;52.548;13.408;2023-06-10T02:01:50;16.00;99.90
2106;DHT22;1059;52.548;13.408;2023-06-10T02:04:17;16.00;99.90
2106;DHT22;1059;52.548;13.408;2023-06-10T02:06:44;16.00;99.90
2106;DHT22;1059;52.548;13.408;2023-06-10T02:09:11;16.00;99.90
2106;DHT22;1059;52.548;13.408;2023-06-10T02:11:39;16.00;99.90
2106;DHT22;1059;52.548;13.408;2023-06-10T02:14:06;16.00;99.90
2106;DHT22;1059;52.548;13.408;2023-06-10T02:16:33;15.90;99.90
2106;DHT22;1059;52.548;13.408;2023-06-10T02:19:00;15.90;99.90
2106;DHT22;1059;52.548;13.408;2023-06-10T02:21:28;15.90;99.90
2106;DHT22;1059;52.548;13.408;2023-06-10T02:23:55;15.80;99.90
2106;DHT22;1059;52.548;13.408;2023-06-10T02:26:21;15.90;99.90
2106;DHT22;1059;52.548;13.408;2023-06-10T02:28:49;15.80;99.90
2106;DHT22;1059;52.548;13.408;2023-06-10T02:31:17;15.80;99.90
2106;DHT22;1059;52.548;13.408;2023-06-10T02:33:45;15.80;99.90
2106;DHT22;1059;52.548;13.408;2023-06-10T02:36:12;15.80;99.90
2106;DHT22;1059;52.548;13.408;2023-06-10T02:38:41;15.80;99.90
2106;DHT22;1059;52.548;13.408;2023-06-10T02:41:07;15.70;99.90
2106;DHT22;1059;52.548;13.408;2023-06-10T02:43:34;15.70;99.90
2106;DHT22;1059;52.548;13.408;2023-06-10T02:46:02;15.70;99.90
2106;DHT22;1059;52.548;13.408;2023-06-10T02:48:29;15.70;99.90
2106;DHT22;1059;52.548;13.408;2023-06-10T02:50:56;15.60;99.90
2106;DHT22;1059;52.548;13.408;2023-06-10T02:53:23;15.60;99.90
2106;DHT22;1059;52.548;13.408;2023-06-10T02:55:49;15.60;99.90
2106;DHT22;1059;52.548;13.408;2023-06-10T02:58:16;15.60;99.90
2106;DHT22;1059;52.548;13.408;2023-06-10T03:00:43;15.60;99.90
2106;DHT22;1059;52.548;13.408;2023-06-10T03:03:12;15.60;99.90
2106;DHT22;1059;52.548;13.408;2023-06-10T03:05:39;15.60;99.90
2106;DHT22;1059;52.548;13.408;2023-06-10T03:08:06;15.60;99.90
2106;DHT22;1059;52.548;13.408;2023-06-10T03:10:32;15.60;99.90
2106;DHT22;1059;52.548;13.408;2023-06-10T03:12:59;15.60;99.90
2106;DHT22;1059;52.548;13.408;2023-06-10T03:15:26;15.60;99.90
2106;DHT22;1059;52.548;13.408;2023-06-10T03:17:54;15.50;99.90
2106;DHT22;1059;52.548;13.408;2023-06-10T03:20:22;15.50;99.90
2106;DHT22;1059;52.548;13.408;2023-06-10T03:22:51;15.50;99.90
2106;DHT22;1059;52.548;13.408;2023-06-10T03:25:17;15.50;99.90
2106;DHT22;1059;52.548;13.408;2023-06-10T03:27:46;15.50;99.90
2106;DHT22;1059;52.548;13.408;2023-06-10T03:30:14;15.50;99.90
2106;DHT22;1059;52.548;13.408;2023-06-10T03:32:41;15.50;99.90
2106;DHT22;1059;52.548;13.408;2023-06-10T03:35:08;15.50;99.90
2106;DHT22;1059;52.548;13.408;2023-06-10T03:37:36;15.50;99.90
2106;DHT22;1059;52.548;13.408;2023-06-10T03:40:04;15.50;99.90
2106;DHT22;1059;52.548;13.408;2023-06-10T03:42:32;15.50;99.90
2106;DHT22;1059;52.548;13.408;2023-06-10T03:44:58;15.50;99.90
2106;DHT22;1059;52.548;13.408;2023-06-10T03:47:25;15.50;99.90
2106;DHT22;1059;52.548;13.408;2023-06-10T03:49:52;15.50;99.90
2106;DHT22;1059;52.548;13.408;2023-06-10T03:52:19;15.60;99.90
2106;DHT22;1059;52.548;13.408;2023-06-10T03:54:47;15.50;99.90
2106;DHT22;1059;52.548;13.408;2023-06-10T03:57:14;15.50;99.90
2106;DHT22;1059;52.548;13.408;2023-06-10T03:59:41;15.60;99.90
2106;DHT22;1059;52.548;13.408;2023-06-10T04:02:08;15.60;99.90
2106;DHT22;1059;52.548;13.408;2023-06-10T04:04:35;15.60;99.90
2106;DHT22;1059;52.548;13.408;2023-06-10T04:07:03;15.60;99.90
2106;DHT22;1059;52.548;13.408;2023-06-10T04:09:30;15.60;99.90
2106;DHT22;1059;52.548;13.408;2023-06-10T04:11:58;15.60;99.90
2106;DHT22;1059;52.548;13.408;2023-06-10T04:14:25;15.60;99.90
2106;DHT22;1059;52.548;13.408;2023-06-10T04:16:52;15.70;99.90
2106;DHT22;1059;52.548;13.408;2023-06-10T04:19:19;15.70;99.90
2106;DHT22;1059;52.548;13.408;2023-06-10T04:21:46;15.70;99.90
2106;DHT22;1059;52.548;13.408;2023-06-10T04:24:13;15.80;99.90
2106;DHT22;1059;52.548;13.408;2023-06-10T04:26:40;15.80;99.90
2106;DHT22;1059;52.548;13.408;2023-06-10T04:29:08;15.80;99.90
2106;DHT22;1059;52.548;13.408;2023-06-10T04:31:35;15.80;99.90
2106;DHT22;1059;52.548;13.408;2023-06-10T04:34:02;15.90;99.90
2106;DHT22;1059;52.548;13.408;2023-06-10T04:36:29;15.90;99.90
2106;DHT22;1059;52.548;13.408;2023-06-10T04:38:56;15.90;99.90
2106;DHT22;1059;52.548;13.408;2023-06-10T04:41:22;16.00;99.90
2106;DHT22;1059;52.548;13.408;2023-06-10T04:43:49;16.00;99.90
2106;DHT22;1059;52.548;13.408;2023-06-10T04:46:18;16.00;99.90
2106;DHT22;1059;52.548;13.408;2023-06-10T04:48:45;16.00;99.90
2106;DHT22;1059;52.548;13.408;2023-06-10T04:51:12;16.10;99.90
2106;DHT22;1059;52.548;13.408;2023-06-10T04:53:39;16.20;99.90
2106;DHT22;1059;52.548;13.408;2023-06-10T04:56:06;16.20;99.90
2106;DHT22;1059;52.548;13.408;2023-06-10T04:58:34;16.30;99.90
2106;DHT22;1059;52.548;13.408;2023-06-10T05:01:01;16.30;99.90
2106;DHT22;1059;52.548;13.408;2023-06-10T05:03:29;16.40;99.90
2106;DHT22;1059;52.548;13.408;2023-06-10T05:05:56;16.40;99.90
2106;DHT22;1059;52.548;13.408;2023-06-10T05:08:23;16.40;99.90
2106;DHT22;1059;52.548;13.408;2023-06-10T05:10:50;16.50;99.90
2106;DHT22;1059;52.548;13.408;2023-06-10T05:13:17;16.50;99.90
2106;DHT22;1059;52.548;13.408;2023-06-10T05:15:44;16.60;99.90
2106;DHT22;1059;52.548;13.408;2023-06-10T05:18:12;16.60;99.90
2106;DHT22;1059;52.548;13.408;2023-06-10T05:20:40;16.60;99.90
2106;DHT22;1059;52.548;13.408;2023-06-10T05:23:07;16.70;99.90
2106;DHT22;1059;52.548;13.408;2023-06-10T05:25:34;16.70;99.90
2106;DHT22;1059;52.548;13.408;2023-06-10T05:28:01;16.70;99.90
2106;DHT22;1059;52.548;13.408;2023-06-10T05:30:28;16.70;99.90
2106;DHT22;1059;52.548;13.408;2023-06-10T05:32:55;16.70;99.90
2106;DHT22;1059;52.548;13.408;2023-06-10T05:35:23;16.80;99.90
2106;DHT22;1059;52.548;13.408;2023-06-10T05:37:51;16.90;99.90
2106;DHT22;1059;52.548;13.408;2023-06-10T05:40:18;16.90;99.90
2106;DHT22;1059;52.548;13.408;2023-06-10T05:42:45;17.00;99.90
2106;DHT22;1059;52.548;13.408;2023-06-10T05:45:12;17.10;99.90
2106;DHT22;1059;52.548;13.408;2023-06-10T05:47:40;17.20;99.90
2106;DHT22;1059;52.548;13.408;2023-06-10T05:50:07;17.30;99.90
2106;DHT22;1059;52.548;13.408;2023-06-10T05:52:35;17.40;99.90
2106;DHT22;1059;52.548;13.408;2023-06-10T05:55:03;17.60;99.90
2106;DHT22;1059;52.548;13.408;2023-06-10T05:57:30;17.70;99.90
2106;DHT22;1059;52.548;13.408;2023-06-10T05:59:57;17.80;99.90
2106;DHT22;1059;52.548;13.408;2023-06-10T06:02:25;17.90;99.90
2106;DHT22;1059;52.548;13.408;2023-06-10T06:04:52;18.00;99.90
2106;DHT22;1059;52.548;13.408;2023-06-10T06:07:18;18.10;99.90
2106;DHT22;1059;52.548;13.408;2023-06-10T06:09:46;18.20;99.90
2106;DHT22;1059;52.548;13.408;2023-06-10T06:12:14;18.30;99.90
2106;DHT22;1059;52.548;13.408;2023-06-10T06:14:41;18.30;99.90
2106;DHT22;1059;52.548;13.408;2023-06-10T06:17:08;18.40;99.90
2106;DHT22;1059;52.548;13.408;2023-06-10T06:19:35;18.50;99.90
2106;DHT22;1059;52.548;13.408;2023-06-10T06:22:01;18.60;99.90
2106;DHT22;1059;52.548;13.408;2023-06-10T06:24:28;18.70;99.90
2106;DHT22;1059;52.548;13.408;2023-06-10T06:26:55;18.80;99.90
2106;DHT22;1059;52.548;13.408;2023-06-10T06:29:24;18.90;99.90
2106;DHT22;1059;52.548;13.408;2023-06-10T06:31:50;19.10;99.90
2106;DHT22;1059;52.548;13.408;2023-06-10T06:34:17;19.10;99.90
2106;DHT22;1059;52.548;13.408;2023-06-10T06:36:44;19.20;99.90
2106;DHT22;1059;52.548;13.408;2023-06-10T06:39:11;19.20;99.90
2106;DHT22;1059;52.548;13.408;2023-06-10T06:41:38;19.30;99.90
2106;DHT22;1059;52.548;13.408;2023-06-10T06:44:05;19.40;99.90
2106;DHT22;1059;52.548;13.408;2023-06-10T06:46:33;19.50;99.90
2106;DHT22;1059;52.548;13.408;2023-06-10T06:49:00;19.50;99.90
2106;DHT22;1059;52.548;13.408;2023-06-10T06:51:26;19.60;99.90
2106;DHT22;1059;52.548;13.408;2023-06-10T06:53:53;19.60;99.90
2106;DHT22;1059;52.548;13.408;2023-06-10T06:56:23;19.60;99.90
2106;DHT22;1059;52.548;13.408;2023-06-10T06:58:51;19.70;99.90
2106;DHT22;1059;52.548;13.408;2023-06-10T07:01:18;19.70;99.90
2106;DHT22;1059;52.548;13.408;2023-06-10T07:03:47;19.70;99.90
2106;DHT22;1059;52.548;13.408;2023-06-10T07:06:14;19.80;99.90
2106;DHT22;1059;52.548;13.408;2023-06-10T07:08:40;20.00;99.90
2106;DHT22;1059;52.548;13.408;2023-06-10T07:11:07;20.10;99.90
2106;DHT22;1059;52.548;13.408;2023-06-10T07:13:34;20.20;99.90
2106;DHT22;1059;52.548;13.408;2023-06-10T07:16:01;20.40;99.90
2106;DHT22;1059;52.548;13.408;2023-06-10T07:18:28;20.50;99.90
2106;DHT22;1059;52.548;13.408;2023-06-10T07:20:56;20.70;99.90
2106;DHT22;1059;52.548;13.408;2023-06-10T07:23:23;20.80;99.90
2106;DHT22;1059;52.548;13.408;2023-06-10T07:25:50;20.90;99.90
2106;DHT22;1059;52.548;13.408;2023-06-10T07:28:17;21.00;99.90
2106;DHT22;1059;52.548;13.408;2023-06-10T07:30:44;21.00;99.90
2106;DHT22;1059;52.548;13.408;2023-06-10T07:33:10;21.10;99.90
2106;DHT22;1059;52.548;13.408;2023-06-10T07:35:37;21.10;99.90
2106;DHT22;1059;52.548;13.408;2023-06-10T07:38:05;21.10;99.90
2106;DHT22;1059;52.548;13.408;2023-06-10T07:40:32;21.20;99.90
2106;DHT22;1059;52.548;13.408;2023-06-10T07:42:59;21.20;99.90
2106;DHT22;1059;52.548;13.408;2023-06-10T07:45:26;21.20;99.90
2106;DHT22;1059;52.548;13.408;2023-06-10T07:47:53;21.20;99.90
2106;DHT22;1059;52.548;13.408;2023-06-10T07:50:20;21.20;99.90
2106;DHT22;1059;52.548;13.408;2023-06-10T07:52:47;21.30;99.90
2106;DHT22;1059;52.548;13.408;2023-06-10T07:55:15;21.30;99.90
2106;DHT22;1059;52.548;13.408;2023-06-10T07:57:42;21.30;99.90
2106;DHT22;1059;52.548;13.408;2023-06-10T08:00:10;21.30;99.90
2106;DHT22;1059;52.548;13.408;2023-06-10T08:02:37;21.30;99.90
2106;DHT22;1059;52.548;13.408;2023-06-10T08:05:04;21.40;99.90
2106;DHT22;1059;52.548;13.408;2023-06-10T08:07:31;21.40;99.90
2106;DHT22;1059;52.548;13.408;2023-06-10T08:09:58;21.50;99.90
2106;DHT22;1059;52.548;13.408;2023-06-10T08:12:26;21.60;99.90
2106;DHT22;1059;52.548;13.408;2023-06-10T08:14:53;21.70;99.90
2106;DHT22;1059;52.548;13.408;2023-06-10T08:17:23;21.80;99.90
2106;DHT22;1059;52.548;13.408;2023-06-10T08:19:50;21.90;99.90
2106;DHT22;1059;52.548;13.408;2023-06-10T08:22:17;21.90;99.90
2106;DHT22;1059;52.548;13.408;2023-06-10T08:24:43;21.90;99.90
2106;DHT22;1059;52.548;13.408;2023-06-10T08:27:10;22.00;99.90
2106;DHT22;1059;52.548;13.408;2023-06-10T08:29:39;22.00;99.90
2106;DHT22;1059;52.548;13.408;2023-06-10T08:32:06;22.00;99.90
2106;DHT22;1059;52.548;13.408;2023-06-10T08:34:33;22.10;99.90
2106;DHT22;1059;52.548;13.408;2023-06-10T08:37:00;22.20;99.90
2106;DHT22;1059;52.548;13.408;2023-06-10T08:39:27;22.30;99.90
2106;DHT22;1059;52.548;13.408;2023-06-10T08:42:05;22.40;99.90
2106;DHT22;1059;52.548;13.408;2023-06-10T08:44:36;22.60;99.90
2106;DHT22;1059;52.548;13.408;2023-06-10T08:47:10;22.70;99.90
2106;DHT22;1059;52.548;13.408;2023-06-10T08:49:43;22.80;99.90
2106;DHT22;1059;52.548;13.408;2023-06-10T08:52:14;22.80;99.90
2106;DHT22;1059;52.548;13.408;2023-06-10T08:54:43;22.80;99.90
2106;DHT22;1059;52.548;13.408;2023-06-10T08:57:10;22.80;99.90
2106;DHT22;1059;52.548;13.408;2023-06-10T08:59:37;22.80;99.90
2106;DHT22;1059;52.548;13.408;2023-06-10T09:02:05;22.80;99.90
2106;DHT22;1059;52.548;13.408;2023-06-10T09:04:34;22.80;99.90
2106;DHT22;1059;52.548;13.408;2023-06-10T09:07:02;22.80;99.90
2106;DHT22;1059;52.548;13.408;2023-06-10T09:09:30;22.80;99.90
2106;DHT22;1059;52.548;13.408;2023-06-10T09:11:58;22.80;99.90
2106;DHT22;1059;52.548;13.408;2023-06-10T09:14:25;22.80;99.90
2106;DHT22;1059;52.548;13.408;2023-06-10T09:16:52;22.80;99.90
2106;DHT22;1059;52.548;13.408;2023-06-10T09:19:23;22.80;99.90
2106;DHT22;1059;52.548;13.408;2023-06-10T09:21:51;22.80;99.90
2106;DHT22;1059;52.548;13.408;2023-06-10T09:24:18;22.70;99.90
2106;DHT22;1059;52.548;13.408;2023-06-10T09:26:45;22.60;99.90
2106;DHT22;1059;52.548;13.408;2023-06-10T09:29:12;22.60;99.90
2106;DHT22;1059;52.548;13.408;2023-06-10T09:31:39;22.50;99.90
2106;DHT22;1059;52.548;13.408;2023-06-10T09:34:08;22.30;99.90
2106;DHT22;1059;52.548;13.408;2023-06-10T09:36:37;22.30;99.90
2106;DHT22;1059;52.548;13.408;2023-06-10T09:39:05;22.20;99.90
2106;DHT22;1059;52.548;13.408;2023-06-10T09:41:40;22.20;99.90
2106;DHT22;1059;52.548;13.408;2023-06-10T09:44:11;22.10;99.90
2106;DHT22;1059;52.548;13.408;2023-06-10T09:46:38;22.10;99.90
2106;DHT22;1059;52.548;13.408;2023-06-10T09:49:05;22.10;99.90
2106;DHT22;1059;52.548;13.408;2023-06-10T09:51:32;22.10;99.90
2106;DHT22;1059;52.548;13.408;2023-06-10T09:54:02;22.10;99.90
2106;DHT22;1059;52.548;13.408;2023-06-10T09:56:33;22.10;99.90
2106;DHT22;1059;52.548;13.408;2023-06-10T09:59:01;22.10;99.90
2106;DHT22;1059;52.548;13.408;2023-06-10T10:01:28;22.10;99.90
2106;DHT22;1059;52.548;13.408;2023-06-10T10:03:54;22.20;99.90
2106;DHT22;1059;52.548;13.408;2023-06-10T10:06:21;22.20;99.90
2106;DHT22;1059;52.548;13.408;2023-06-10T10:08:49;22.20;99.90
2106;DHT22;1059;52.548;13.408;2023-06-10T10:11:19;22.10;99.90
2106;DHT22;1059;52.548;13.408;2023-06-10T10:13:48;22.10;99.90
2106;DHT22;1059;52.548;13.408;2023-06-10T10:16:17;22.10;99.90
2106;DHT22;1059;52.548;13.408;2023-06-10T10:18:48;22.10;99.90
2106;DHT22;1059;52.548;13.408;2023-06-10T10:21:16;22.20;99.90
2106;DHT22;1059;52.548;13.408;2023-06-10T10:23:53;22.30;99.90
2106;DHT22;1059;52.548;13.408;2023-06-10T10:26:26;22.30;99.90
2106;DHT22;1059;52.548;13.408;2023-06-10T10:28:58;22.40;99.90
2106;DHT22;1059;52.548;13.408;2023-06-10T10:31:29;22.50;99.90
2106;DHT22;1059;52.548;13.408;2023-06-10T10:34:00;22.60;99.90
2106;DHT22;1059;52.548;13.408;2023-06-10T10:36:27;22.60;99.90
2106;DHT22;1059;52.548;13.408;2023-06-10T10:38:55;22.60;99.90
2106;DHT22;1059;52.548;13.408;2023-06-10T10:41:24;22.70;99.90
2106;DHT22;1059;52.548;13.408;2023-06-10T10:43:53;22.60;99.90
2106;DHT22;1059;52.548;13.408;2023-06-10T10:46:20;22.60;99.90
2106;DHT22;1059;52.548;13.408;2023-06-10T10:48:52;22.60;99.90
2106;DHT22;1059;52.548;13.408;2023-06-10T10:51:20;22.60;99.90
2106;DHT22;1059;52.548;13.408;2023-06-10T10:54:11;22.60;99.90
2106;DHT22;1059;52.548;13.408;2023-06-10T10:56:39;22.50;99.90
2106;DHT22;1059;52.548;13.408;2023-06-10T10:59:53;22.50;99.90
2106;DHT22;1059;52.548;13.408;2023-06-10T11:02:36;22.50;99.90
2106;DHT22;1059;52.548;13.408;2023-06-10T11:05:05;22.70;99.90
2106;DHT22;1059;52.548;13.408;2023-06-10T11:07:33;22.80;99.90
2106;DHT22;1059;52.548;13.408;2023-06-10T11:10:01;22.90;99.90
2106;DHT22;1059;52.548;13.408;2023-06-10T11:12:41;23.10;99.90
2106;DHT22;1059;52.548;13.408;2023-06-10T11:15:08;23.30;99.90
2106;DHT22;1059;52.548;13.408;2023-06-10T11:17:35;23.40;99.90
2106;DHT22;1059;52.548;13.408;2023-06-10T11:20:03;23.50;99.90
2106;DHT22;1059;52.548;13.408;2023-06-10T11:22:30;23.50;99.90
2106;DHT22;1059;52.548;13.408;2023-06-10T11:24:57;23.60;99.90
2106;DHT22;1059;52.548;13.408;2023-06-10T11:27:24;23.70;99.90
2106;DHT22;1059;52.548;13.408;2023-06-10T11:30:21;23.80;99.90
2106;DHT22;1059;52.548;13.408;2023-06-10T11:32:52;23.90;99.90
2106;DHT22;1059;52.548;13.408;2023-06-10T11:35:19;24.30;99.90
2106;DHT22;1059;52.548;13.408;2023-06-10T11:37:47;25.00;99.90
2106;DHT22;1059;52.548;13.408;2023-06-10T11:40:14;26.20;99.90
2106;DHT22;1059;52.548;13.408;2023-06-10T11:42:42;27.40;99.90
2106;DHT22;1059;52.548;13.408;2023-06-10T11:45:14;28.40;99.90
2106;DHT22;1059;52.548;13.408;2023-06-10T11:47:55;29.30;99.90
2106;DHT22;1059;52.548;13.408;2023-06-10T11:50:28;30.00;99.90
2106;DHT22;1059;52.548;13.408;2023-06-10T11:52:55;30.60;99.90
2106;DHT22;1059;52.548;13.408;2023-06-10T11:55:24;31.00;99.90
2106;DHT22;1059;52.548;13.408;2023-06-10T11:57:50;31.40;99.50
2106;DHT22;1059;52.548;13.408;2023-06-10T12:00:23;31.70;97.70
2106;DHT22;1059;52.548;13.408;2023-06-10T12:02:56;31.90;95.80
2106;DHT22;1059;52.548;13.408;2023-06-10T12:05:24;32.10;90.20
2106;DHT22;1059;52.548;13.408;2023-06-10T12:08:09;32.20;88.40
2106;DHT22;1059;52.548;13.408;2023-06-10T12:10:40;32.30;85.30
2106;DHT22;1059;52.548;13.408;2023-06-10T12:13:07;32.60;83.30
2106;DHT22;1059;52.548;13.408;2023-06-10T12:15:34;32.80;79.10
2106;DHT22;1059;52.548;13.408;2023-06-10T12:18:03;33.20;71.50
2106;DHT22;1059;52.548;13.408;2023-06-10T12:20:32;33.60;64.20
2106;DHT22;1059;52.548;13.408;2023-06-10T12:22:59;33.90;57.10
2106;DHT22;1059;52.548;13.408;2023-06-10T12:25:27;34.10;52.00
2106;DHT22;1059;52.548;13.408;2023-06-10T12:27:56;34.30;49.70
2106;DHT22;1059;52.548;13.408;2023-06-10T12:30:24;34.50;45.20
2106;DHT22;1059;52.548;13.408;2023-06-10T12:32:52;34.70;43.00
2106;DHT22;1059;52.548;13.408;2023-06-10T12:35:21;34.90;42.20
2106;DHT22;1059;52.548;13.408;2023-06-10T12:37:57;35.10;39.60
2106;DHT22;1059;52.548;13.408;2023-06-10T12:40:26;35.00;38.90
2106;DHT22;1059;52.548;13.408;2023-06-10T12:42:54;35.00;39.10
2106;DHT22;1059;52.548;13.408;2023-06-10T12:45:26;35.00;39.10
2106;DHT22;1059;52.548;13.408;2023-06-10T12:48:04;35.20;38.30
2106;DHT22;1059;52.548;13.408;2023-06-10T12:50:34;35.30;37.00
2106;DHT22;1059;52.548;13.408;2023-06-10T12:53:01;35.20;37.30
2106;DHT22;1059;52.548;13.408;2023-06-10T12:55:28;35.20;37.80
2106;DHT22;1059;52.548;13.408;2023-06-10T12:57:55;35.40;38.00
2106;DHT22;1059;52.548;13.408;2023-06-10T13:00:23;35.50;38.00
2106;DHT22;1059;52.548;13.408;2023-06-10T13:02:51;35.70;37.70
2106;DHT22;1059;52.548;13.408;2023-06-10T13:05:19;35.70;38.00
2106;DHT22;1059;52.548;13.408;2023-06-10T13:07:48;35.60;37.10
2106;DHT22;1059;52.548;13.408;2023-06-10T13:10:15;35.60;37.00
2106;DHT22;1059;52.548;13.408;2023-06-10T13:13:19;35.60;37.00
2106;DHT22;1059;52.548;13.408;2023-06-10T13:15:46;35.70;36.60
2106;DHT22;1059;52.548;13.408;2023-06-10T13:18:15;35.80;36.30
2106;DHT22;1059;52.548;13.408;2023-06-10T13:20:43;35.80;34.10
2106;DHT22;1059;52.548;13.408;2023-06-10T13:23:11;35.80;34.10
2106;DHT22;1059;52.548;13.408;2023-06-10T13:25:39;35.70;33.90
2106;DHT22;1059;52.548;13.408;2023-06-10T13:28:06;35.70;34.40
2106;DHT22;1059;52.548;13.408;2023-06-10T13:30:33;35.60;32.60
2106;DHT22;1059;52.548;13.408;2023-06-10T13:33:00;35.60;34.00
2106;DHT22;1059;52.548;13.408;2023-06-10T13:35:27;35.70;34.50
2106;DHT22;1059;52.548;13.408;2023-06-10T13:37:54;35.90;33.90
2106;DHT22;1059;52.548;13.408;2023-06-10T13:40:22;36.10;33.00
2106;DHT22;1059;52.548;13.408;2023-06-10T13:42:49;36.20;32.80
2106;DHT22;1059;52.548;13.408;2023-06-10T13:45:18;36.30;32.00
2106;DHT22;1059;52.548;13.408;2023-06-10T13:47:44;36.40;31.60
2106;DHT22;1059;52.548;13.408;2023-06-10T13:50:11;36.50;30.80
2106;DHT22;1059;52.548;13.408;2023-06-10T13:52:38;36.60;30.90
2106;DHT22;1059;52.548;13.408;2023-06-10T13:55:06;36.60;29.90
2106;DHT22;1059;52.548;13.408;2023-06-10T13:57:34;36.60;29.80
2106;DHT22;1059;52.548;13.408;2023-06-10T14:00:01;36.20;29.50
2106;DHT22;1059;52.548;13.408;2023-06-10T14:02:28;35.70;29.80
2106;DHT22;1059;52.548;13.408;2023-06-10T14:04:55;35.30;31.90
2106;DHT22;1059;52.548;13.408;2023-06-10T14:07:22;34.70;33.00
2106;DHT22;1059;52.548;13.408;2023-06-10T14:09:48;34.30;34.10
2106;DHT22;1059;52.548;13.408;2023-06-10T14:12:16;34.10;33.30
2106;DHT22;1059;52.548;13.408;2023-06-10T14:14:44;34.20;33.20
2106;DHT22;1059;52.548;13.408;2023-06-10T14:17:11;34.50;31.90
2106;DHT22;1059;52.548;13.408;2023-06-10T14:19:38;34.90;29.60
2106;DHT22;1059;52.548;13.408;2023-06-10T14:22:06;35.30;26.40
2106;DHT22;1059;52.548;13.408;2023-06-10T14:24:33;35.50;25.80
2106;DHT22;1059;52.548;13.408;2023-06-10T14:27:00;35.50;25.30
2106;DHT22;1059;52.548;13.408;2023-06-10T14:29:27;35.50;25.70
2106;DHT22;1059;52.548;13.408;2023-06-10T14:31:57;35.70;25.90
2106;DHT22;1059;52.548;13.408;2023-06-10T14:34:24;35.90;26.80
2106;DHT22;1059;52.548;13.408;2023-06-10T14:36:54;36.00;26.00
2106;DHT22;1059;52.548;13.408;2023-06-10T14:39:21;36.10;25.20
2106;DHT22;1059;52.548;13.408;2023-06-10T14:41:47;36.20;25.20
2106;DHT22;1059;52.548;13.408;2023-06-10T14:44:14;36.30;25.20
2106;DHT22;1059;52.548;13.408;2023-06-10T14:46:41;36.20;24.10
2106;DHT22;1059;52.548;13.408;2023-06-10T14:49:09;35.90;23.60
2106;DHT22;1059;52.548;13.408;2023-06-10T14:51:36;35.60;24.10
2106;DHT22;1059;52.548;13.408;2023-06-10T14:54:03;35.20;24.60
2106;DHT22;1059;52.548;13.408;2023-06-10T14:56:30;35.00;24.50
2106;DHT22;1059;52.548;13.408;2023-06-10T14:58:57;34.90;24.20
2106;DHT22;1059;52.548;13.408;2023-06-10T15:01:24;34.80;22.90
2106;DHT22;1059;52.548;13.408;2023-06-10T15:03:50;34.60;22.60
2106;DHT22;1059;52.548;13.408;2023-06-10T15:06:19;34.40;23.00
2106;DHT22;1059;52.548;13.408;2023-06-10T15:08:46;34.30;22.90
2106;DHT22;1059;52.548;13.408;2023-06-10T15:11:14;34.10;23.10
2106;DHT22;1059;52.548;13.408;2023-06-10T15:13:40;34.00;23.50
2106;DHT22;1059;52.548;13.408;2023-06-10T15:16:07;33.90;23.60
2106;DHT22;1059;52.548;13.408;2023-06-10T15:18:34;33.70;23.30
2106;DHT22;1059;52.548;13.408;2023-06-10T15:21:01;33.30;23.70
2106;DHT22;1059;52.548;13.408;2023-06-10T15:23:29;32.90;24.00
2106;DHT22;1059;52.548;13.408;2023-06-10T15:25:56;32.60;24.30
2106;DHT22;1059;52.548;13.408;2023-06-10T15:28:23;32.20;24.80
2106;DHT22;1059;52.548;13.408;2023-06-10T15:30:50;31.90;24.30
2106;DHT22;1059;52.548;13.408;2023-06-10T15:33:17;31.50;25.10
2106;DHT22;1059;52.548;13.408;2023-06-10T15:35:43;31.20;25.50
2106;DHT22;1059;52.548;13.408;2023-06-10T15:38:10;30.90;25.80
2106;DHT22;1059;52.548;13.408;2023-06-10T15:40:40;30.60;26.00
2106;DHT22;1059;52.548;13.408;2023-06-10T15:43:07;30.40;26.80
2106;DHT22;1059;52.548;13.408;2023-06-10T15:45:34;30.30;27.50
2106;DHT22;1059;52.548;13.408;2023-06-10T15:48:01;30.20;26.70
2106;DHT22;1059;52.548;13.408;2023-06-10T15:50:28;30.20;27.50